sensor_id;sensor_type;location;lat;lon;timestamp;temperature;humidity
44643;DHT22;33930;-34.276;150.954;2022-11-20T00:02:26;37.30;57.40
44643;DHT22;33930;-34.276;150.954;2022-11-20T00:04:57;37.40;55.50
44643;DHT22;33930;-34.276;150.954;2022-11-20T00:07:28;36.70;60.70
44643;DHT22;33930;-34.276;150.954;2022-11-20T00:09:59;36.90;60.30
44643;DHT22;33930;-34.276;150.954;2022-11-20T00:12:27;36.90;57.20
44643;DHT22;33930;-34.276;150.954;2022-11-20T00:14:57;36.60;57.70
44643;DHT22;33930;-34.276;150.954;2022-11-20T00:17:27;36.70;55.60
44643;DHT22;33930;-34.276;150.954;2022-11-20T00:19:58;36.40;57.20
44643;DHT22;33930;-34.276;150.954;2022-11-20T00:22:28;36.40;60.10
44643;DHT22;33930;-34.276;150.954;2022-11-20T00:24:57;36.10;56.80
44643;DHT22;33930;-34.276;150.954;2022-11-20T00:27:25;35.40;59.60
44643;DHT22;33930;-34.276;150.954;2022-11-20T00:29:54;34.50;58.30
44643;DHT22;33930;-34.276;150.954;2022-11-20T00:32:24;33.40;59.90
44643;DHT22;33930;-34.276;150.954;2022-11-20T00:34:55;32.50;58.60
44643;DHT22;33930;-34.276;150.954;2022-11-20T00:37:26;31.80;62.20
44643;DHT22;33930;-34.276;150.954;2022-11-20T00:39:54;31.50;65.10
44643;DHT22;33930;-34.276;150.954;2022-11-20T00:42:22;31.20;63.30
44643;DHT22;33930;-34.276;150.954;2022-11-20T00:44:51;30.90;62.30
44643;DHT22;33930;-34.276;150.954;2022-11-20T00:47:19;30.70;64.20
44643;DHT22;33930;-34.276;150.954;2022-11-20T00:49:48;30.60;63.40
44643;DHT22;33930;-34.276;150.954;2022-11-20T00:52:15;30.40;63.70
44643;DHT22;33930;-34.276;150.954;2022-11-20T00:54:44;29.80;64.30
44643;DHT22;33930;-34.276;150.954;2022-11-20T00:57:15;29.70;64.80
44643;DHT22;33930;-34.276;150.954;2022-11-20T00:59:45;29.60;63.50
44643;DHT22;33930;-34.276;150.954;2022-11-20T01:02:12;29.30;64.00
44643;DHT22;33930;-34.276;150.954;2022-11-20T01:04:44;29.30;61.70
44643;DHT22;33930;-34.276;150.954;2022-11-20T01:07:15;29.20;62.40
44643;DHT22;33930;-34.276;150.954;2022-11-20T01:09:45;29.10;65.50
44643;DHT22;33930;-34.276;150.954;2022-11-20T01:12:16;29.00;65.60
44643;DHT22;33930;-34.276;150.954;2022-11-20T01:14:47;29.00;64.80
44643;DHT22;33930;-34.276;150.954;2022-11-20T01:17:15;29.00;64.40
44643;DHT22;33930;-34.276;150.954;2022-11-20T01:19:42;28.90;64.30
44643;DHT22;33930;-34.276;150.954;2022-11-20T01:22:12;28.80;65.60
44643;DHT22;33930;-34.276;150.954;2022-11-20T01:24:42;28.80;66.90
44643;DHT22;33930;-34.276;150.954;2022-11-20T01:27:10;28.80;65.80
44643;DHT22;33930;-34.276;150.954;2022-11-20T01:29:40;28.70;64.10
44643;DHT22;33930;-34.276;150.954;2022-11-20T01:32:10;28.60;67.00
44643;DHT22;33930;-34.276;150.954;2022-11-20T01:34:40;28.50;67.80
44643;DHT22;33930;-34.276;150.954;2022-11-20T01:37:10;28.50;67.50
44643;DHT22;33930;-34.276;150.954;2022-11-20T01:39:41;28.50;64.20
44643;DHT22;33930;-34.276;150.954;2022-11-20T01:42:08;28.50;65.20
44643;DHT22;33930;-34.276;150.954;2022-11-20T01:44:56;28.30;66.30
44643;DHT22;33930;-34.276;150.954;2022-11-20T01:47:37;28.10;68.20
44643;DHT22;33930;-34.276;150.954;2022-11-20T01:52:55;28.20;68.20
44643;DHT22;33930;-34.276;150.954;2022-11-20T01:55:36;28.00;64.30
44643;DHT22;33930;-34.276;150.954;2022-11-20T01:58:05;27.90;64.20
44643;DHT22;33930;-34.276;150.954;2022-11-20T02:00:33;27.80;66.00
44643;DHT22;33930;-34.276;150.954;2022-11-20T02:03:11;27.80;67.20
44643;DHT22;33930;-34.276;150.954;2022-11-20T02:08:10;27.60;64.80
44643;DHT22;33930;-34.276;150.954;2022-11-20T02:10:38;27.60;64.60
44643;DHT22;33930;-34.276;150.954;2022-11-20T02:13:08;27.60;65.70
44643;DHT22;33930;-34.276;150.954;2022-11-20T02:15:54;27.50;66.40
44643;DHT22;33930;-34.276;150.954;2022-11-20T02:18:24;27.70;64.40
44643;DHT22;33930;-34.276;150.954;2022-11-20T02:20:59;27.80;65.00
44643;DHT22;33930;-34.276;150.954;2022-11-20T02:24:02;27.90;64.50
44643;DHT22;33930;-34.276;150.954;2022-11-20T02:26:33;28.00;66.20
44643;DHT22;33930;-34.276;150.954;2022-11-20T02:29:05;28.10;64.20
44643;DHT22;33930;-34.276;150.954;2022-11-20T02:31:40;28.00;66.00
44643;DHT22;33930;-34.276;150.954;2022-11-20T02:34:09;28.00;68.30
44643;DHT22;33930;-34.276;150.954;2022-11-20T02:36:40;28.20;64.40
44643;DHT22;33930;-34.276;150.954;2022-11-20T02:39:12;28.30;63.10
44643;DHT22;33930;-34.276;150.954;2022-11-20T02:41:43;28.40;65.30
44643;DHT22;33930;-34.276;150.954;2022-11-20T02:44:13;28.30;66.30
44643;DHT22;33930;-34.276;150.954;2022-11-20T02:46:43;28.30;65.00
44643;DHT22;33930;-34.276;150.954;2022-11-20T02:49:13;28.40;64.60
44643;DHT22;33930;-34.276;150.954;2022-11-20T02:51:43;28.40;65.40
44643;DHT22;33930;-34.276;150.954;2022-11-20T02:54:10;28.40;64.20
44643;DHT22;33930;-34.276;150.954;2022-11-20T02:56:40;28.40;64.50
44643;DHT22;33930;-34.276;150.954;2022-11-20T02:59:10;28.40;63.20
44643;DHT22;33930;-34.276;150.954;2022-11-20T03:01:37;28.00;64.50
44643;DHT22;33930;-34.276;150.954;2022-11-20T03:04:05;28.00;67.10
44643;DHT22;33930;-34.276;150.954;2022-11-20T03:06:36;28.00;65.60
44643;DHT22;33930;-34.276;150.954;2022-11-20T03:09:06;28.10;67.00
44643;DHT22;33930;-34.276;150.954;2022-11-20T03:11:36;27.80;63.50
44643;DHT22;33930;-34.276;150.954;2022-11-20T03:14:06;27.90;62.90
44643;DHT22;33930;-34.276;150.954;2022-11-20T03:16:35;28.00;63.90
44643;DHT22;33930;-34.276;150.954;2022-11-20T03:19:06;28.00;64.10
44643;DHT22;33930;-34.276;150.954;2022-11-20T03:21:35;28.00;64.60
44643;DHT22;33930;-34.276;150.954;2022-11-20T03:24:06;28.00;65.70
44643;DHT22;33930;-34.276;150.954;2022-11-20T03:26:34;28.10;63.70
44643;DHT22;33930;-34.276;150.954;2022-11-20T03:29:03;28.00;65.50
44643;DHT22;33930;-34.276;150.954;2022-11-20T03:31:36;28.00;62.20
44643;DHT22;33930;-34.276;150.954;2022-11-20T03:34:08;27.90;62.90
44643;DHT22;33930;-34.276;150.954;2022-11-20T03:36:41;27.60;61.10
44643;DHT22;33930;-34.276;150.954;2022-11-20T03:39:10;27.50;65.20
44643;DHT22;33930;-34.276;150.954;2022-11-20T03:41:41;27.60;65.80
44643;DHT22;33930;-34.276;150.954;2022-11-20T03:44:12;27.60;65.10
44643;DHT22;33930;-34.276;150.954;2022-11-20T03:46:42;27.70;62.90
44643;DHT22;33930;-34.276;150.954;2022-11-20T03:49:13;27.60;63.50
44643;DHT22;33930;-34.276;150.954;2022-11-20T03:51:44;27.60;61.30
44643;DHT22;33930;-34.276;150.954;2022-11-20T03:54:14;27.50;62.50
44643;DHT22;33930;-34.276;150.954;2022-11-20T03:56:45;27.60;64.10
44643;DHT22;33930;-34.276;150.954;2022-11-20T03:59:15;27.50;62.50
44643;DHT22;33930;-34.276;150.954;2022-11-20T04:01:45;27.30;62.60
44643;DHT22;33930;-34.276;150.954;2022-11-20T04:04:15;27.30;65.00
44643;DHT22;33930;-34.276;150.954;2022-11-20T04:06:43;27.40;63.60
44643;DHT22;33930;-34.276;150.954;2022-11-20T04:09:13;27.30;65.10
44643;DHT22;33930;-34.276;150.954;2022-11-20T04:11:43;27.40;64.00
44643;DHT22;33930;-34.276;150.954;2022-11-20T04:14:15;27.40;66.10
44643;DHT22;33930;-34.276;150.954;2022-11-20T04:16:44;27.30;65.00
44643;DHT22;33930;-34.276;150.954;2022-11-20T04:19:15;27.20;62.90
44643;DHT22;33930;-34.276;150.954;2022-11-20T04:21:44;27.00;64.10
44643;DHT22;33930;-34.276;150.954;2022-11-20T04:24:14;26.90;64.80
44643;DHT22;33930;-34.276;150.954;2022-11-20T04:26:44;26.80;62.20
44643;DHT22;33930;-34.276;150.954;2022-11-20T04:29:13;26.80;62.10
44643;DHT22;33930;-34.276;150.954;2022-11-20T04:31:41;26.70;62.90
44643;DHT22;33930;-34.276;150.954;2022-11-20T04:34:12;26.60;63.00
44643;DHT22;33930;-34.276;150.954;2022-11-20T04:36:39;26.60;61.30
44643;DHT22;33930;-34.276;150.954;2022-11-20T04:39:14;26.60;61.80
44643;DHT22;33930;-34.276;150.954;2022-11-20T04:41:43;26.40;61.00
44643;DHT22;33930;-34.276;150.954;2022-11-20T04:44:13;26.40;64.00
44643;DHT22;33930;-34.276;150.954;2022-11-20T04:46:43;26.40;62.60
44643;DHT22;33930;-34.276;150.954;2022-11-20T04:49:12;26.30;62.20
44643;DHT22;33930;-34.276;150.954;2022-11-20T04:51:42;26.40;61.60
44643;DHT22;33930;-34.276;150.954;2022-11-20T04:54:11;26.30;61.90
44643;DHT22;33930;-34.276;150.954;2022-11-20T04:56:42;26.20;60.50
44643;DHT22;33930;-34.276;150.954;2022-11-20T04:59:12;26.20;61.70
44643;DHT22;33930;-34.276;150.954;2022-11-20T05:01:40;26.20;61.80
44643;DHT22;33930;-34.276;150.954;2022-11-20T05:04:07;26.30;62.10
44643;DHT22;33930;-34.276;150.954;2022-11-20T05:06:37;26.20;61.60
44643;DHT22;33930;-34.276;150.954;2022-11-20T05:09:09;26.30;63.10
44643;DHT22;33930;-34.276;150.954;2022-11-20T05:11:39;26.20;62.50
44643;DHT22;33930;-34.276;150.954;2022-11-20T05:14:06;26.10;61.20
44643;DHT22;33930;-34.276;150.954;2022-11-20T05:16:37;26.00;63.90
44643;DHT22;33930;-34.276;150.954;2022-11-20T05:19:07;25.90;61.50
44643;DHT22;33930;-34.276;150.954;2022-11-20T05:21:34;25.80;64.20
44643;DHT22;33930;-34.276;150.954;2022-11-20T05:24:01;25.70;64.00
44643;DHT22;33930;-34.276;150.954;2022-11-20T05:26:32;25.60;63.80
44643;DHT22;33930;-34.276;150.954;2022-11-20T05:29:03;25.50;63.90
44643;DHT22;33930;-34.276;150.954;2022-11-20T05:31:33;25.30;64.50
44643;DHT22;33930;-34.276;150.954;2022-11-20T05:34:03;25.20;61.00
44643;DHT22;33930;-34.276;150.954;2022-11-20T05:36:33;25.30;63.70
44643;DHT22;33930;-34.276;150.954;2022-11-20T05:39:03;25.10;64.10
44643;DHT22;33930;-34.276;150.954;2022-11-20T05:41:32;25.10;64.30
44643;DHT22;33930;-34.276;150.954;2022-11-20T05:44:00;25.00;63.00
44643;DHT22;33930;-34.276;150.954;2022-11-20T05:46:30;24.90;64.70
44643;DHT22;33930;-34.276;150.954;2022-11-20T05:49:01;24.70;63.20
44643;DHT22;33930;-34.276;150.954;2022-11-20T05:51:29;24.70;61.50
44643;DHT22;33930;-34.276;150.954;2022-11-20T05:53:59;24.60;63.40
44643;DHT22;33930;-34.276;150.954;2022-11-20T05:56:30;24.60;63.90
44643;DHT22;33930;-34.276;150.954;2022-11-20T05:59:01;24.50;62.90
44643;DHT22;33930;-34.276;150.954;2022-11-20T06:01:32;24.50;60.10
44643;DHT22;33930;-34.276;150.954;2022-11-20T06:04:03;24.40;62.50
44643;DHT22;33930;-34.276;150.954;2022-11-20T06:06:34;24.30;62.80
44643;DHT22;33930;-34.276;150.954;2022-11-20T06:09:05;24.20;62.80
44643;DHT22;33930;-34.276;150.954;2022-11-20T06:11:36;24.20;63.70
44643;DHT22;33930;-34.276;150.954;2022-11-20T06:14:07;24.10;62.10
44643;DHT22;33930;-34.276;150.954;2022-11-20T06:16:37;24.20;62.50
44643;DHT22;33930;-34.276;150.954;2022-11-20T06:19:08;24.10;64.20
44643;DHT22;33930;-34.276;150.954;2022-11-20T06:21:39;23.90;65.20
44643;DHT22;33930;-34.276;150.954;2022-11-20T06:24:08;23.90;63.70
44643;DHT22;33930;-34.276;150.954;2022-11-20T06:26:36;23.90;65.40
44643;DHT22;33930;-34.276;150.954;2022-11-20T06:29:06;23.80;66.70
44643;DHT22;33930;-34.276;150.954;2022-11-20T06:31:37;23.80;63.40
44643;DHT22;33930;-34.276;150.954;2022-11-20T06:34:08;23.70;64.70
44643;DHT22;33930;-34.276;150.954;2022-11-20T06:36:39;23.60;64.60
44643;DHT22;33930;-34.276;150.954;2022-11-20T06:39:09;23.70;62.60
44643;DHT22;33930;-34.276;150.954;2022-11-20T06:41:40;23.70;64.60
44643;DHT22;33930;-34.276;150.954;2022-11-20T06:44:10;23.50;62.50
44643;DHT22;33930;-34.276;150.954;2022-11-20T06:46:41;23.50;65.30
44643;DHT22;33930;-34.276;150.954;2022-11-20T06:49:11;23.40;66.20
44643;DHT22;33930;-34.276;150.954;2022-11-20T06:51:42;23.30;65.00
44643;DHT22;33930;-34.276;150.954;2022-11-20T06:54:13;23.30;67.00
44643;DHT22;33930;-34.276;150.954;2022-11-20T06:56:47;23.20;66.40
44643;DHT22;33930;-34.276;150.954;2022-11-20T06:59:15;23.10;67.30
44643;DHT22;33930;-34.276;150.954;2022-11-20T07:01:42;23.00;68.90
44643;DHT22;33930;-34.276;150.954;2022-11-20T07:04:12;23.00;64.80
44643;DHT22;33930;-34.276;150.954;2022-11-20T07:06:43;23.00;68.50
44643;DHT22;33930;-34.276;150.954;2022-11-20T07:09:14;23.00;65.90
44643;DHT22;33930;-34.276;150.954;2022-11-20T07:11:41;23.00;65.90
44643;DHT22;33930;-34.276;150.954;2022-11-20T07:14:10;22.90;67.30
44643;DHT22;33930;-34.276;150.954;2022-11-20T07:16:40;22.80;67.00
44643;DHT22;33930;-34.276;150.954;2022-11-20T07:19:10;22.70;69.10
44643;DHT22;33930;-34.276;150.954;2022-11-20T07:21:41;22.60;67.50
44643;DHT22;33930;-34.276;150.954;2022-11-20T07:24:10;22.60;69.50
44643;DHT22;33930;-34.276;150.954;2022-11-20T07:26:39;22.50;70.10
44643;DHT22;33930;-34.276;150.954;2022-11-20T07:29:09;22.30;69.10
44643;DHT22;33930;-34.276;150.954;2022-11-20T07:31:39;22.30;70.50
44643;DHT22;33930;-34.276;150.954;2022-11-20T07:34:06;22.20;66.90
44643;DHT22;33930;-34.276;150.954;2022-11-20T07:36:36;22.40;65.20
44643;DHT22;33930;-34.276;150.954;2022-11-20T07:39:07;22.30;68.20
44643;DHT22;33930;-34.276;150.954;2022-11-20T07:41:38;22.20;66.50
44643;DHT22;33930;-34.276;150.954;2022-11-20T07:44:05;22.00;71.10
44643;DHT22;33930;-34.276;150.954;2022-11-20T07:46:36;22.00;67.80
44643;DHT22;33930;-34.276;150.954;2022-11-20T07:49:07;21.90;68.60
44643;DHT22;33930;-34.276;150.954;2022-11-20T07:51:37;21.80;71.30
44643;DHT22;33930;-34.276;150.954;2022-11-20T07:54:08;21.70;70.40
44643;DHT22;33930;-34.276;150.954;2022-11-20T07:56:38;21.50;72.00
44643;DHT22;33930;-34.276;150.954;2022-11-20T07:59:08;21.40;73.60
44643;DHT22;33930;-34.276;150.954;2022-11-20T08:01:39;21.30;72.20
44643;DHT22;33930;-34.276;150.954;2022-11-20T08:04:10;21.10;75.50
44643;DHT22;33930;-34.276;150.954;2022-11-20T08:06:40;21.10;76.40
44643;DHT22;33930;-34.276;150.954;2022-11-20T08:09:10;21.00;75.70
44643;DHT22;33930;-34.276;150.954;2022-11-20T08:11:39;20.90;78.20
44643;DHT22;33930;-34.276;150.954;2022-11-20T08:14:24;20.80;78.10
44643;DHT22;33930;-34.276;150.954;2022-11-20T08:16:54;20.70;76.90
44643;DHT22;33930;-34.276;150.954;2022-11-20T08:19:26;20.70;69.00
44643;DHT22;33930;-34.276;150.954;2022-11-20T08:21:55;20.70;74.40
44643;DHT22;33930;-34.276;150.954;2022-11-20T08:24:23;20.60;72.80
44643;DHT22;33930;-34.276;150.954;2022-11-20T08:26:52;20.60;69.90
44643;DHT22;33930;-34.276;150.954;2022-11-20T08:29:20;20.50;71.40
44643;DHT22;33930;-34.276;150.954;2022-11-20T08:31:50;20.30;76.80
44643;DHT22;33930;-34.276;150.954;2022-11-20T08:34:21;20.30;75.00
44643;DHT22;33930;-34.276;150.954;2022-11-20T08:36:52;20.20;71.30
44643;DHT22;33930;-34.276;150.954;2022-11-20T08:39:20;20.10;73.70
44643;DHT22;33930;-34.276;150.954;2022-11-20T08:41:47;20.00;72.90
44643;DHT22;33930;-34.276;150.954;2022-11-20T08:44:17;20.00;70.30
44643;DHT22;33930;-34.276;150.954;2022-11-20T08:46:47;19.90;70.70
44643;DHT22;33930;-34.276;150.954;2022-11-20T08:49:17;20.00;68.70
44643;DHT22;33930;-34.276;150.954;2022-11-20T08:51:47;20.00;69.50
44643;DHT22;33930;-34.276;150.954;2022-11-20T08:54:18;20.00;69.60
44643;DHT22;33930;-34.276;150.954;2022-11-20T08:56:48;20.00;72.40
44643;DHT22;33930;-34.276;150.954;2022-11-20T08:59:18;19.90;69.80
44643;DHT22;33930;-34.276;150.954;2022-11-20T09:01:49;19.80;72.40
44643;DHT22;33930;-34.276;150.954;2022-11-20T09:04:21;19.70;73.60
44643;DHT22;33930;-34.276;150.954;2022-11-20T09:06:51;19.60;73.20
44643;DHT22;33930;-34.276;150.954;2022-11-20T09:09:19;19.60;71.60
44643;DHT22;33930;-34.276;150.954;2022-11-20T09:11:46;19.60;70.90
44643;DHT22;33930;-34.276;150.954;2022-11-20T09:14:17;19.60;73.90
44643;DHT22;33930;-34.276;150.954;2022-11-20T09:16:47;19.50;73.90
44643;DHT22;33930;-34.276;150.954;2022-11-20T09:19:16;19.40;70.50
44643;DHT22;33930;-34.276;150.954;2022-11-20T09:21:47;19.40;73.80
44643;DHT22;33930;-34.276;150.954;2022-11-20T09:24:18;19.30;76.20
44643;DHT22;33930;-34.276;150.954;2022-11-20T09:26:47;19.40;70.70
44643;DHT22;33930;-34.276;150.954;2022-11-20T09:29:14;19.30;74.60
44643;DHT22;33930;-34.276;150.954;2022-11-20T09:31:45;19.20;77.60
44643;DHT22;33930;-34.276;150.954;2022-11-20T09:34:12;19.20;77.90
44643;DHT22;33930;-34.276;150.954;2022-11-20T09:36:42;19.10;78.50
44643;DHT22;33930;-34.276;150.954;2022-11-20T09:39:14;18.90;79.70
44643;DHT22;33930;-34.276;150.954;2022-11-20T11:28:22;16.90;88.00
44643;DHT22;33930;-34.276;150.954;2022-11-20T11:30:52;16.80;88.50
44643;DHT22;33930;-34.276;150.954;2022-11-20T11:33:31;16.80;89.60
44643;DHT22;33930;-34.276;150.954;2022-11-20T11:36:20;16.70;90.00
44643;DHT22;33930;-34.276;150.954;2022-11-20T11:38:52;16.70;90.20
44643;DHT22;33930;-34.276;150.954;2022-11-20T11:41:32;16.70;90.30
44643;DHT22;33930;-34.276;150.954;2022-11-20T11:44:28;16.70;90.20
44643;DHT22;33930;-34.276;150.954;2022-11-20T11:50:14;16.60;90.70
44643;DHT22;33930;-34.276;150.954;2022-11-20T11:56:10;16.60;90.80
44643;DHT22;33930;-34.276;150.954;2022-11-20T12:06:50;16.40;91.80
44643;DHT22;33930;-34.276;150.954;2022-11-20T12:09:20;16.40;91.40
44643;DHT22;33930;-34.276;150.954;2022-11-20T12:12:47;16.30;91.90
44643;DHT22;33930;-34.276;150.954;2022-11-20T12:15:23;16.30;91.90
44643;DHT22;33930;-34.276;150.954;2022-11-20T12:17:51;16.30;91.80
44643;DHT22;33930;-34.276;150.954;2022-11-20T12:20:21;16.20;92.30
44643;DHT22;33930;-34.276;150.954;2022-11-20T12:25:31;16.10;92.50
44643;DHT22;33930;-34.276;150.954;2022-11-20T12:34:06;16.10;92.80
44643;DHT22;33930;-34.276;150.954;2022-11-20T12:36:50;16.10;93.00
44643;DHT22;33930;-34.276;150.954;2022-11-20T12:39:27;16.10;92.90
44643;DHT22;33930;-34.276;150.954;2022-11-20T12:50:51;15.90;94.20
44643;DHT22;33930;-34.276;150.954;2022-11-20T12:56:43;15.80;94.20
44643;DHT22;33930;-34.276;150.954;2022-11-20T13:02:01;15.80;94.30
44643;DHT22;33930;-34.276;150.954;2022-11-20T13:07:15;15.80;94.30
44643;DHT22;33930;-34.276;150.954;2022-11-20T13:09:48;15.70;94.60
44643;DHT22;33930;-34.276;150.954;2022-11-20T13:17:34;15.70;94.80
44643;DHT22;33930;-34.276;150.954;2022-11-20T13:20:06;15.70;94.60
44643;DHT22;33930;-34.276;150.954;2022-11-20T13:25:46;15.60;94.80
44643;DHT22;33930;-34.276;150.954;2022-11-20T13:30:55;15.60;94.90
44643;DHT22;33930;-34.276;150.954;2022-11-20T13:36:05;15.60;95.30
44643;DHT22;33930;-34.276;150.954;2022-11-20T13:41:33;15.60;95.80
44643;DHT22;33930;-34.276;150.954;2022-11-20T13:46:43;15.60;95.40
44643;DHT22;33930;-34.276;150.954;2022-11-20T14:00:22;15.40;95.80
44643;DHT22;33930;-34.276;150.954;2022-11-20T14:05:51;15.40;96.30
44643;DHT22;33930;-34.276;150.954;2022-11-20T14:11:06;15.40;96.60
44643;DHT22;33930;-34.276;150.954;2022-11-20T14:13:50;15.30;95.50
44643;DHT22;33930;-34.276;150.954;2022-11-20T14:16:20;15.30;95.20
44643;DHT22;33930;-34.276;150.954;2022-11-20T14:18:48;15.30;95.20
44643;DHT22;33930;-34.276;150.954;2022-11-20T14:21:41;15.30;93.60
44643;DHT22;33930;-34.276;150.954;2022-11-20T14:24:12;15.40;94.10
44643;DHT22;33930;-34.276;150.954;2022-11-20T14:26:46;15.50;93.00
44643;DHT22;33930;-34.276;150.954;2022-11-20T14:29:27;15.60;92.60
44643;DHT22;33930;-34.276;150.954;2022-11-20T14:31:56;15.70;92.40
44643;DHT22;33930;-34.276;150.954;2022-11-20T14:34:26;15.70;92.70
44643;DHT22;33930;-34.276;150.954;2022-11-20T14:37:05;15.80;94.70
44643;DHT22;33930;-34.276;150.954;2022-11-20T14:39:36;15.80;94.80
44643;DHT22;33930;-34.276;150.954;2022-11-20T14:42:21;15.70;94.50
44643;DHT22;33930;-34.276;150.954;2022-11-20T14:44:50;15.70;94.30
44643;DHT22;33930;-34.276;150.954;2022-11-20T14:47:23;15.70;93.60
44643;DHT22;33930;-34.276;150.954;2022-11-20T14:49:53;15.70;94.10
44643;DHT22;33930;-34.276;150.954;2022-11-20T14:52:24;15.70;93.60
44643;DHT22;33930;-34.276;150.954;2022-11-20T15:00:02;15.70;94.80
44643;DHT22;33930;-34.276;150.954;2022-11-20T15:02:30;15.70;95.00
44643;DHT22;33930;-34.276;150.954;2022-11-20T15:04:59;15.70;95.00
44643;DHT22;33930;-34.276;150.954;2022-11-20T15:07:33;15.60;94.50
44643;DHT22;33930;-34.276;150.954;2022-11-20T15:10:11;15.60;94.70
44643;DHT22;33930;-34.276;150.954;2022-11-20T15:12:47;15.50;94.70
44643;DHT22;33930;-34.276;150.954;2022-11-20T15:15:43;15.60;93.20
44643;DHT22;33930;-34.276;150.954;2022-11-20T15:18:58;15.60;94.20
44643;DHT22;33930;-34.276;150.954;2022-11-20T15:21:09;15.60;93.80
44643;DHT22;33930;-34.276;150.954;2022-11-20T15:23:37;15.70;94.10
44643;DHT22;33930;-34.276;150.954;2022-11-20T15:26:08;15.70;94.00
44643;DHT22;33930;-34.276;150.954;2022-11-20T15:28:41;15.60;93.10
44643;DHT22;33930;-34.276;150.954;2022-11-20T15:31:18;15.70;93.30
44643;DHT22;33930;-34.276;150.954;2022-11-20T15:33:46;15.60;93.70
44643;DHT22;33930;-34.276;150.954;2022-11-20T15:36:14;15.60;93.70
44643;DHT22;33930;-34.276;150.954;2022-11-20T15:38:41;15.60;93.30
44643;DHT22;33930;-34.276;150.954;2022-11-20T15:41:09;15.60;93.70
44643;DHT22;33930;-34.276;150.954;2022-11-20T15:43:36;15.60;94.50
44643;DHT22;33930;-34.276;150.954;2022-11-20T15:46:15;15.50;94.50
44643;DHT22;33930;-34.276;150.954;2022-11-20T15:48:45;15.50;95.30
44643;DHT22;33930;-34.276;150.954;2022-11-20T15:51:29;15.50;95.40
44643;DHT22;33930;-34.276;150.954;2022-11-20T15:53:57;15.50;95.30
44643;DHT22;33930;-34.276;150.954;2022-11-20T15:56:25;15.40;95.10
44643;DHT22;33930;-34.276;150.954;2022-11-20T15:58:53;15.40;95.30
44643;DHT22;33930;-34.276;150.954;2022-11-20T16:01:21;15.40;95.20
44643;DHT22;33930;-34.276;150.954;2022-11-20T16:03:49;15.30;95.50
44643;DHT22;33930;-34.276;150.954;2022-11-20T16:06:16;15.20;95.60
44643;DHT22;33930;-34.276;150.954;2022-11-20T16:08:44;15.20;95.60
44643;DHT22;33930;-34.276;150.954;2022-11-20T16:11:16;15.20;95.70
44643;DHT22;33930;-34.276;150.954;2022-11-20T16:13:44;15.20;95.80
44643;DHT22;33930;-34.276;150.954;2022-11-20T16:18:58;15.10;95.10
44643;DHT22;33930;-34.276;150.954;2022-11-20T16:21:27;15.10;94.30
44643;DHT22;33930;-34.276;150.954;2022-11-20T16:24:02;15.10;95.10
44643;DHT22;33930;-34.276;150.954;2022-11-20T16:26:30;15.10;95.20
44643;DHT22;33930;-34.276;150.954;2022-11-20T16:29:02;15.10;95.80
44643;DHT22;33930;-34.276;150.954;2022-11-20T16:31:30;15.20;96.00
44643;DHT22;33930;-34.276;150.954;2022-11-20T16:34:00;15.20;95.20
44643;DHT22;33930;-34.276;150.954;2022-11-20T16:36:28;15.30;95.50
44643;DHT22;33930;-34.276;150.954;2022-11-20T16:38:58;15.30;95.60
44643;DHT22;33930;-34.276;150.954;2022-11-20T16:41:27;15.30;94.90
44643;DHT22;33930;-34.276;150.954;2022-11-20T16:43:57;15.40;93.50
44643;DHT22;33930;-34.276;150.954;2022-11-20T16:46:27;15.50;94.90
44643;DHT22;33930;-34.276;150.954;2022-11-20T16:48:55;15.60;95.30
44643;DHT22;33930;-34.276;150.954;2022-11-20T16:51:24;15.60;94.80
44643;DHT22;33930;-34.276;150.954;2022-11-20T16:53:52;15.80;93.80
44643;DHT22;33930;-34.276;150.954;2022-11-20T16:56:24;15.80;94.00
44643;DHT22;33930;-34.276;150.954;2022-11-20T16:58:54;15.80;94.80
44643;DHT22;33930;-34.276;150.954;2022-11-20T17:01:23;15.80;94.20
44643;DHT22;33930;-34.276;150.954;2022-11-20T17:04:02;15.90;93.40
44643;DHT22;33930;-34.276;150.954;2022-11-20T17:06:32;15.80;93.80
44643;DHT22;33930;-34.276;150.954;2022-11-20T17:09:00;15.90;93.90
44643;DHT22;33930;-34.276;150.954;2022-11-20T17:11:28;15.90;93.70
44643;DHT22;33930;-34.276;150.954;2022-11-20T17:13:59;15.90;93.90
44643;DHT22;33930;-34.276;150.954;2022-11-20T17:16:26;15.90;93.80
44643;DHT22;33930;-34.276;150.954;2022-11-20T17:18:56;15.90;94.40
44643;DHT22;33930;-34.276;150.954;2022-11-20T17:21:23;16.00;94.20
44643;DHT22;33930;-34.276;150.954;2022-11-20T17:23:52;15.90;94.10
44643;DHT22;33930;-34.276;150.954;2022-11-20T17:26:22;15.90;94.40
44643;DHT22;33930;-34.276;150.954;2022-11-20T17:28:54;15.80;95.20
44643;DHT22;33930;-34.276;150.954;2022-11-20T17:31:22;15.90;95.30
44643;DHT22;33930;-34.276;150.954;2022-11-20T17:33:49;15.90;94.10
44643;DHT22;33930;-34.276;150.954;2022-11-20T17:36:17;15.90;93.70
44643;DHT22;33930;-34.276;150.954;2022-11-20T17:38:45;16.10;94.80
44643;DHT22;33930;-34.276;150.954;2022-11-20T17:41:15;16.10;94.90
44643;DHT22;33930;-34.276;150.954;2022-11-20T17:43:44;16.10;94.80
44643;DHT22;33930;-34.276;150.954;2022-11-20T17:46:13;16.10;93.30
44643;DHT22;33930;-34.276;150.954;2022-11-20T17:48:41;16.10;94.80
44643;DHT22;33930;-34.276;150.954;2022-11-20T17:51:20;16.10;95.10
44643;DHT22;33930;-34.276;150.954;2022-11-20T17:53:50;16.10;95.10
44643;DHT22;33930;-34.276;150.954;2022-11-20T17:56:18;15.90;94.30
44643;DHT22;33930;-34.276;150.954;2022-11-20T17:59:05;16.00;94.50
44643;DHT22;33930;-34.276;150.954;2022-11-20T18:01:33;16.00;95.20
44643;DHT22;33930;-34.276;150.954;2022-11-20T18:04:01;16.00;95.40
44643;DHT22;33930;-34.276;150.954;2022-11-20T18:06:29;16.00;96.00
44643;DHT22;33930;-34.276;150.954;2022-11-20T18:09:01;15.90;95.90
44643;DHT22;33930;-34.276;150.954;2022-11-20T18:11:32;15.80;95.60
44643;DHT22;33930;-34.276;150.954;2022-11-20T18:14:01;15.80;95.90
44643;DHT22;33930;-34.276;150.954;2022-11-20T18:16:52;15.80;95.60
44643;DHT22;33930;-34.276;150.954;2022-11-20T18:19:25;15.70;95.40
44643;DHT22;33930;-34.276;150.954;2022-11-20T18:21:52;15.70;96.40
44643;DHT22;33930;-34.276;150.954;2022-11-20T18:24:20;15.60;95.90
44643;DHT22;33930;-34.276;150.954;2022-11-20T18:26:47;15.60;95.20
44643;DHT22;33930;-34.276;150.954;2022-11-20T18:29:15;15.80;95.90